Time;durP1;ratioP1;P1;durP2;ratioP2;P2;SDS_P1;SDS_P2;PMS_P1;PMS_P2;Temp;Humidity;BMP_temperature;BMP_pressure;BME280_temperature;BME280_humidity;BME280_pressure;Samples;Min_cycle;Max_cycle;Signal;HPM_P1;HPM_P2
2024/01/16 00:03:10;;;;;;;10.90;3.20;;;;;;;-1.41;100.00;98822.00;215303;1285;139942;-87
2024/01/16 00:08:10;;;;;;;10.20;3.00;;;;;;;-1.44;100.00;98823.98;215518;1291;138963;-87
2024/01/16 00:13:11;;;;;;;10.30;4.00;;;;;;;-1.47;100.00;98831.21;214989;1286;139816;-87
2024/01/16 00:18:11;;;;;;;12.10;4.30;;;;;;;-1.51;100.00;98835.86;215290;1288;138879;-87
2024/01/16 00:23:12;;;;;;;9.20;3.50;;;;;;;-1.56;100.00;98848.88;215133;1285;140417;-87
2024/01/16 00:28:12;;;;;;;8.20;3.10;;;;;;;-1.64;100.00;98847.98;215718;1286;96825;-87
2024/01/16 00:33:13;;;;;;;9.60;3.40;;;;;;;-1.70;100.00;98861.95;215803;1286;139310;-86
2024/01/16 00:38:14;;;;;;;8.50;3.60;;;;;;;-1.78;100.00;98868.92;215606;1286;138669;-86
2024/01/16 00:43:14;;;;;;;8.80;3.20;;;;;;;-1.86;100.00;98872.44;215291;1285;139580;-86
2024/01/16 00:48:14;;;;;;;12.20;3.40;;;;;;;-1.94;100.00;98882.38;215513;1290;138500;-86
2024/01/16 00:53:18;;;;;;;8.50;3.60;;;;;;;-1.97;100.00;98891.67;215193;1289;140124;-86
2024/01/16 00:58:19;;;;;;;8.10;2.70;;;;;;;-2.00;100.00;98904.03;215764;1287;97916;-85
2024/01/16 01:03:20;;;;;;;8.70;2.70;;;;;;;-2.07;100.00;98914.50;215087;1290;139242;-85
2024/01/16 01:08:21;;;;;;;6.10;2.30;;;;;;;-2.12;100.00;98924.76;215594;1285;138858;-85
2024/01/16 01:13:22;;;;;;;9.70;3.50;;;;;;;-2.14;100.00;98934.17;215245;1288;139511;-85
2024/01/16 01:18:23;;;;;;;13.70;3.90;;;;;;;-2.12;100.00;98939.17;215624;1287;138829;-85
2024/01/16 01:23:23;;;;;;;10.50;3.60;;;;;;;-2.10;100.00;98944.64;214989;1285;139393;-85
2024/01/16 01:28:24;;;;;;;11.40;4.30;;;;;;;-2.09;100.00;98949.52;215874;1286;96337;-85
2024/01/16 01:33:24;;;;;;;14.40;4.50;;;;;;;-2.15;100.00;98957.71;215233;1287;140055;-85
2024/01/16 01:38:24;;;;;;;13.30;4.40;;;;;;;-2.16;100.00;98966.38;215597;1286;138793;-85
2024/01/16 01:43:25;;;;;;;10.30;4.10;;;;;;;-2.17;100.00;98974.55;215109;1286;140419;-85
2024/01/16 01:48:26;;;;;;;14.40;4.60;;;;;;;-2.16;100.00;98987.23;215572;1290;139767;-86
2024/01/16 01:53:28;;;;;;;9.10;3.80;;;;;;;-2.15;100.00;98996.48;215175;1290;139931;-86
2024/01/16 01:58:29;;;;;;;10.80;3.50;;;;;;;-2.15;100.00;99002.22;215746;1288;96250;-86
2024/01/16 02:03:35;;;;;;;8.10;3.60;;;;;;;-2.16;100.00;99002.08;215124;1287;139501;-86
2024/01/16 02:08:36;;;;;;;13.90;4.40;;;;;;;-2.17;100.00;99014.35;215964;1285;138996;-85
2024/01/16 02:13:37;;;;;;;16.90;5.20;;;;;;;-2.20;100.00;99011.62;215721;1286;141179;-85
2024/01/16 02:18:37;;;;;;;12.80;4.80;;;;;;;-2.20;100.00;99013.87;215578;1289;139298;-86
2024/01/16 02:23:38;;;;;;;12.80;4.50;;;;;;;-2.25;100.00;99015.50;215056;1287;140012;-85
2024/01/16 02:28:38;;;;;;;11.00;4.10;;;;;;;-2.31;100.00;99021.07;215598;1286;139353;-85
2024/01/16 02:33:38;;;;;;;11.20;3.50;;;;;;;-2.36;100.00;99029.47;215259;1287;140602;-85
2024/01/16 02:38:39;;;;;;;10.00;3.80;;;;;;;-2.39;100.00;99044.54;215434;1286;138719;-86
2024/01/16 02:43:40;;;;;;;11.00;3.40;;;;;;;-2.42;100.00;99048.16;215027;1287;139302;-86
2024/01/16 02:48:42;;;;;;;8.30;3.30;;;;;;;-2.41;100.00;99055.98;215695;1289;138682;-85
2024/01/16 02:53:42;;;;;;;6.90;3.40;;;;;;;-2.39;100.00;99069.45;214779;1289;139504;-84
2024/01/16 02:58:43;;;;;;;7.90;3.40;;;;;;;-2.39;100.00;99075.78;215504;1287;139900;-85
2024/01/16 03:03:44;;;;;;;9.20;3.50;;;;;;;-2.38;100.00;99083.60;215008;1286;139456;-85
2024/01/16 03:08:45;;;;;;;8.00;3.20;;;;;;;-2.39;100.00;99088.48;215392;1287;139193;-85
2024/01/16 03:13:45;;;;;;;7.20;2.80;;;;;;;-2.41;100.00;99095.02;215195;1286;140097;-85
2024/01/16 03:18:47;;;;;;;7.60;2.70;;;;;;;-2.40;100.00;99095.20;215464;1290;138640;-86
2024/01/16 03:23:47;;;;;;;6.60;2.50;;;;;;;-2.39;100.00;99098.88;214980;1286;139151;-86
2024/01/16 03:28:48;;;;;;;5.80;2.50;;;;;;;-2.39;100.00;99097.77;215772;1286;139113;-86
2024/01/16 03:33:49;;;;;;;8.60;2.90;;;;;;;-2.40;100.00;99107.98;215089;1285;139146;-86
2024/01/16 03:38:49;;;;;;;12.00;3.00;;;;;;;-2.40;100.00;99114.04;215735;1287;138716;-86
2024/01/16 03:43:50;;;;;;;11.30;3.30;;;;;;;-2.44;100.00;99120.67;215078;1288;139782;-86
2024/01/16 03:48:50;;;;;;;9.30;3.10;;;;;;;-2.46;100.00;99128.80;215493;1286;139223;-86
2024/01/16 03:53:51;;;;;;;9.80;3.40;;;;;;;-2.49;100.00;99135.61;215088;1287;139090;-86
2024/01/16 03:58:53;;;;;;;10.70;3.20;;;;;;;-2.56;100.00;99137.55;215379;1287;138594;-86
2024/01/16 04:03:53;;;;;;;8.10;3.10;;;;;;;-2.66;100.00;99146.89;215002;1286;139738;-86
2024/01/16 04:08:54;;;;;;;9.20;3.60;;;;;;;-2.71;100.00;99154.63;215455;1286;138343;-86
2024/01/16 04:13:55;;;;;;;7.30;2.50;;;;;;;-2.77;100.00;99167.56;215066;1285;139587;-86
2024/01/16 04:18:55;;;;;;;9.80;3.50;;;;;;;-2.82;100.00;99167.20;215431;1287;138957;-86
2024/01/16 04:23:56;;;;;;;8.20;2.80;;;;;;;-2.91;100.00;99168.58;214875;1286;139829;-86
2024/01/16 04:28:57;;;;;;;6.60;2.60;;;;;;;-2.96;100.00;99172.92;215560;1286;138503;-86
2024/01/16 04:33:57;;;;;;;8.10;2.80;;;;;;;-2.97;100.00;99177.00;215168;1288;139294;-86
2024/01/16 04:38:58;;;;;;;10.20;3.30;;;;;;;-3.04;100.00;99189.48;215608;1287;138640;-85
2024/01/16 04:43:58;;;;;;;6.70;2.90;;;;;;;-3.07;100.00;99195.23;214947;1287;139691;-85
2024/01/16 04:48:59;;;;;;;11.40;3.20;;;;;;;-3.15;100.00;99199.52;215376;1285;138805;-86
2024/01/16 04:53:59;;;;;;;8.40;3.60;;;;;;;-3.24;100.00;99198.95;214919;1287;139831;-86
2024/01/16 04:59:00;;;;;;;12.60;4.10;;;;;;;-3.31;100.00;99197.69;215288;1289;139620;-86
2024/01/16 05:04:00;;;;;;;10.90;3.80;;;;;;;-3.39;100.00;99202.86;214843;1285;139451;-86
2024/01/16 05:09:01;;;;;;;8.30;3.20;;;;;;;-3.47;100.00;99211.33;215247;1287;138887;-86
2024/01/16 05:14:01;;;;;;;12.70;4.00;;;;;;;-3.48;100.00;99215.98;214697;1285;139154;-86
2024/01/16 05:19:02;;;;;;;9.90;4.00;;;;;;;-3.62;100.00;99227.79;215496;1285;139312;-86
2024/01/16 05:24:03;;;;;;;11.30;4.50;;;;;;;-3.78;100.00;99233.85;214989;1287;139657;-85
2024/01/16 05:29:05;;;;;;;13.00;4.80;;;;;;;-3.92;100.00;99238.02;215558;1287;138776;-86
2024/01/16 05:34:05;;;;;;;9.40;4.20;;;;;;;-4.02;100.00;99242.59;214993;1286;140084;-85
2024/01/16 05:39:06;;;;;;;8.70;3.30;;;;;;;-4.19;100.00;99247.69;215551;1289;138512;-85
2024/01/16 05:44:06;;;;;;;10.30;4.00;;;;;;;-4.36;100.00;99252.60;215122;1286;139618;-85
2024/01/16 05:49:07;;;;;;;12.30;4.60;;;;;;;-4.40;100.00;99258.11;215376;1285;138914;-85
2024/01/16 05:54:07;;;;;;;12.30;4.00;;;;;;;-4.47;100.00;99262.64;214982;1285;139818;-85
2024/01/16 05:59:08;;;;;;;14.60;4.80;;;;;;;-4.52;100.00;99269.38;215482;1285;138650;-84
2024/01/16 06:04:08;;;;;;;13.20;3.90;;;;;;;-4.61;100.00;99283.94;215297;1286;139745;-84
2024/01/16 06:09:09;;;;;;;12.00;3.50;;;;;;;-4.84;100.00;99291.20;215851;1286;139544;-84
2024/01/16 06:14:09;;;;;;;15.00;4.80;;;;;;;-4.91;100.00;99294.95;215399;1286;139845;-84
2024/01/16 06:19:10;;;;;;;12.80;4.10;;;;;;;-5.00;100.00;99294.98;215916;1286;138800;-84
2024/01/16 06:24:13;;;;;;;10.80;3.80;;;;;;;-5.16;100.00;99306.90;215300;1287;140368;-83
2024/01/16 06:29:13;;;;;;;11.30;3.80;;;;;;;-5.19;100.00;99309.90;215713;1285;139330;-84
2024/01/16 06:34:14;;;;;;;16.10;4.70;;;;;;;-5.31;100.00;99317.79;215374;1286;139377;-84
2024/01/16 06:39:14;;;;;;;10.40;4.40;;;;;;;-5.34;100.00;99323.59;215712;1285;138793;-84
2024/01/16 06:44:15;;;;;;;13.80;5.00;;;;;;;-5.44;100.00;99330.11;215282;1285;140299;-83
2024/01/16 06:49:15;;;;;;;16.50;6.00;;;;;;;-5.47;100.00;99330.86;215879;1285;139283;-83
2024/01/16 06:54:16;;;;;;;16.60;6.40;;;;;;;-5.51;100.00;99341.89;215278;1286;140933;-83
2024/01/16 06:59:19;;;;;;;17.80;6.20;;;;;;;-5.54;100.00;99360.48;215754;1286;139721;-82
2024/01/16 07:04:19;;;;;;;18.30;7.00;;;;;;;-5.63;100.00;99375.84;215219;1287;139215;-82
2024/01/16 07:09:20;;;;;;;19.90;7.80;;;;;;;-5.71;100.00;99384.41;215912;1287;139262;-83
2024/01/16 07:14:21;;;;;;;15.00;5.90;;;;;;;-5.74;100.00;99406.80;215058;1286;140108;-83
2024/01/16 07:19:21;;;;;;;19.40;7.60;;;;;;;-5.69;100.00;99419.63;215665;1285;139272;-83
2024/01/16 07:24:23;;;;;;;20.20;8.00;;;;;;;-5.66;100.00;99427.77;215155;1287;139924;-83
2024/01/16 07:29:23;;;;;;;22.40;8.60;;;;;;;-5.63;100.00;99431.36;215720;1285;139345;-82
2024/01/16 07:34:25;;;;;;;19.60;8.90;;;;;;;-5.56;100.00;99438.63;215183;1288;139844;-82
2024/01/16 07:39:28;;;;;;;27.30;11.90;;;;;;;-5.48;100.00;99445.14;215685;1286;139150;-82
2024/01/16 07:44:29;;;;;;;35.00;14.00;;;;;;;-5.42;100.00;99450.11;215265;1286;140449;-82
2024/01/16 07:49:29;;;;;;;43.30;15.50;;;;;;;-5.34;100.00;99454.62;215626;1285;139210;-82
2024/01/16 07:54:30;;;;;;;29.70;14.40;;;;;;;-5.22;100.00;99458.04;215098;1285;140250;-82
2024/01/16 07:59:31;;;;;;;30.30;11.60;;;;;;;-5.11;100.00;99471.02;215624;1286;139370;-83
2024/01/16 08:04:32;;;;;;;21.50;8.60;;;;;;;-4.98;100.00;99476.84;215346;1285;140600;-82
2024/01/16 08:09:32;;;;;;;24.50;8.40;;;;;;;-4.86;100.00;99486.52;215794;1288;96612;-82
2024/01/16 08:14:32;;;;;;;20.60;7.70;;;;;;;-4.72;100.00;99488.98;215536;1287;140072;-83
2024/01/16 08:19:33;;;;;;;22.70;7.20;;;;;;;-4.59;100.00;99482.84;215869;1286;140501;-82
2024/01/16 08:24:34;;;;;;;19.00;7.40;;;;;;;-4.48;100.00;99493.94;215081;1286;140851;-81
2024/01/16 08:29:34;;;;;;;18.30;7.10;;;;;;;-4.39;100.00;99497.11;215564;1287;139156;-82
2024/01/16 08:34:34;;;;;;;19.40;6.40;;;;;;;-4.29;100.00;99506.35;215128;1285;139921;-82
2024/01/16 08:39:35;;;;;;;14.10;5.70;;;;;;;-4.17;100.00;99525.70;216067;1287;96441;-82
2024/01/16 08:44:36;;;;;;;11.30;5.20;;;;;;;-4.04;100.00;99532.07;215466;1290;139728;-82
2024/01/16 08:49:38;;;;;;;14.40;4.80;;;;;;;-3.84;100.00;99536.54;215842;1286;139218;-82
2024/01/16 08:54:39;;;;;;;14.10;5.20;;;;;;;-3.51;100.00;99543.49;215734;1285;139347;-82
2024/01/16 08:59:40;;;;;;;9.90;4.20;;;;;;;-3.23;100.00;99549.81;216726;1286;139755;-82
2024/01/16 09:04:41;;;;;;;11.00;4.20;;;;;;;-3.01;100.00;99545.13;216252;1286;140173;-83
2024/01/16 09:09:42;;;;;;;9.60;4.20;;;;;;;-2.84;100.00;99536.08;217259;1285;96425;-82
2024/01/16 09:14:43;;;;;;;8.70;3.50;;;;;;;-2.69;100.00;99540.90;216213;1286;139800;-83
2024/01/16 09:19:43;;;;;;;9.20;3.40;;;;;;;-2.51;100.00;99551.80;216872;1286;139085;-83
2024/01/16 09:24:44;;;;;;;9.70;3.30;;;;;;;-2.28;100.00;99553.52;215682;1286;140791;-83
2024/01/16 09:29:44;;;;;;;11.30;3.50;;;;;;;-2.04;100.00;99558.79;215534;1288;139070;-84
2024/01/16 09:34:44;;;;;;;10.20;2.90;;;;;;;-1.90;100.00;99558.80;215086;1286;140772;-83
2024/01/16 09:39:45;;;;;;;10.30;3.10;;;;;;;-1.75;100.00;99559.60;215614;1285;97155;-84
2024/01/16 09:44:48;;;;;;;9.50;3.20;;;;;;;-1.60;100.00;99568.64;215006;1287;139964;-84
2024/01/16 09:49:49;;;;;;;10.40;3.40;;;;;;;-1.50;100.00;99566.65;215241;1285;139060;-84
2024/01/16 09:54:49;;;;;;;13.20;3.40;;;;;;;-1.40;100.00;99578.30;215396;1286;139746;-84
2024/01/16 09:59:51;;;;;;;15.60;4.30;;;;;;;-1.34;100.00;99588.32;215138;1287;141109;-85
2024/01/16 10:04:52;;;;;;;59.80;15.90;;;;;;;-1.33;100.00;99589.77;215293;1290;139760;-85
2024/01/16 10:09:52;;;;;;;14.40;5.10;;;;;;;-1.26;100.00;99599.23;215027;1286;140734;-85
2024/01/16 10:14:55;;;;;;;12.90;4.40;;;;;;;-1.22;100.00;99604.75;215392;1287;139395;-85
2024/01/16 10:19:58;;;;;;;9.00;3.60;;;;;;;-1.15;100.00;99606.52;215003;1287;140490;-85
2024/01/16 10:25:05;;;;;;;10.90;5.80;;;;;;;-1.13;100.00;99611.77;215501;1287;139108;-85
2024/01/16 10:30:07;;;;;;;19.80;9.50;;;;;;;-1.07;100.00;99604.73;214876;1285;140813;-85
2024/01/16 10:35:10;;;;;;;18.10;9.40;;;;;;;-1.04;100.00;99601.74;215309;1289;139141;-85
2024/01/16 10:40:18;;;;;;;14.20;5.30;;;;;;;-1.01;100.00;99599.20;215016;1285;140434;-85
2024/01/16 10:45:19;;;;;;;14.80;7.10;;;;;;;-0.97;100.00;99605.91;215197;1289;139176;-85
2024/01/16 10:50:20;;;;;;;10.80;5.50;;;;;;;-0.94;100.00;99598.79;214869;1285;140095;-85
2024/01/16 10:55:22;;;;;;;8.70;3.20;;;;;;;-0.87;100.00;99594.55;215531;1287;139898;-84
2024/01/16 11:00:24;;;;;;;7.50;3.00;;;;;;;-0.82;100.00;99600.17;214875;1287;140536;-85
2024/01/16 11:05:25;;;;;;;13.00;4.80;;;;;;;-0.81;100.00;99598.95;215656;1285;139313;-85
2024/01/16 11:10:27;;;;;;;9.40;2.80;;;;;;;-0.76;100.00;99597.73;214892;1287;140014;-85
2024/01/16 11:15:29;;;;;;;7.30;2.50;;;;;;;-0.79;100.00;99598.19;215451;1285;138813;-84
2024/01/16 11:20:31;;;;;;;9.80;3.80;;;;;;;-0.81;100.00;99597.65;215510;1285;139859;-85
2024/01/16 11:25:33;;;;;;;8.40;3.20;;;;;;;-0.77;100.00;99604.70;215571;1285;139597;-84
2024/01/16 11:30:33;;;;;;;7.10;2.40;;;;;;;-0.74;100.00;99610.16;214983;1287;141119;-85
2024/01/16 11:35:38;;;;;;;9.00;2.90;;;;;;;-0.72;100.00;99615.80;215425;1287;139202;-85
2024/01/16 11:40:39;;;;;;;10.10;4.00;;;;;;;-0.74;100.00;99623.41;215257;1287;139987;-85
2024/01/16 11:45:39;;;;;;;5.80;2.40;;;;;;;-0.81;100.00;99634.77;215483;1287;95340;-85
2024/01/16 11:50:41;;;;;;;7.00;2.60;;;;;;;-0.78;100.00;99638.98;215101;1285;139583;-85
2024/01/16 11:56:18;;;;;;;4.90;2.60;;;;;;;-0.72;100.00;99643.17;215414;1285;139007;-85
2024/01/16 12:01:19;;;;;;;11.10;3.10;;;;;;;-0.67;100.00;99641.70;214710;1289;140297;-85
2024/01/16 12:06:20;;;;;;;14.30;4.20;;;;;;;-0.62;100.00;99642.16;215516;1287;139611;-85
2024/01/16 12:11:21;;;;;;;14.80;5.50;;;;;;;-0.58;100.00;99636.30;215061;1286;140135;-85
2024/01/16 12:16:22;;;;;;;9.80;3.40;;;;;;;-0.61;100.00;99628.99;215598;1285;96714;-85
2024/01/16 12:21:22;;;;;;;10.30;3.80;;;;;;;-0.74;100.00;99637.27;215035;1285;139599;-85
2024/01/16 12:26:23;;;;;;;10.90;3.60;;;;;;;-0.81;100.00;99640.34;215604;1285;139116;-85
2024/01/16 12:31:24;;;;;;;7.40;3.70;;;;;;;-0.84;100.00;99636.58;214984;1285;139890;-85
2024/01/16 12:36:25;;;;;;;12.30;4.40;;;;;;;-0.84;100.00;99635.51;215349;1286;139135;-85
2024/01/16 12:41:36;;;;;;;11.00;4.40;;;;;;;-0.84;100.00;99634.11;214992;1287;139892;-85
2024/01/16 12:46:37;;;;;;;9.70;3.70;;;;;;;-0.86;100.00;99631.92;215380;1287;139886;-85
2024/01/16 12:51:37;;;;;;;48.20;14.60;;;;;;;-0.92;100.00;99639.46;215269;1285;140683;-85
2024/01/16 12:56:37;;;;;;;17.10;6.30;;;;;;;-0.98;100.00;99642.08;215629;1286;139081;-85
2024/01/16 13:01:42;;;;;;;13.80;5.60;;;;;;;-1.03;100.00;99642.17;215040;1285;139912;-85
2024/01/16 13:06:43;;;;;;;19.90;7.70;;;;;;;-1.08;100.00;99643.77;215361;1289;139633;-85
2024/01/16 13:11:49;;;;;;;12.80;5.50;;;;;;;-1.13;100.00;99639.23;214824;1285;140187;-84
2024/01/16 13:16:56;;;;;;;18.80;7.40;;;;;;;-1.15;100.00;99639.67;215487;1290;139119;-85
2024/01/16 13:21:56;;;;;;;19.50;6.60;;;;;;;-1.20;100.00;99641.40;214771;1287;140698;-85
2024/01/16 13:26:58;;;;;;;13.90;6.50;;;;;;;-1.25;100.00;99637.71;215397;1285;139185;-84
2024/01/16 13:31:59;;;;;;;16.00;5.90;;;;;;;-1.31;100.00;99642.02;214876;1288;140635;-84
2024/01/16 13:37:01;;;;;;;14.90;6.70;;;;;;;-1.35;100.00;99644.55;215252;1290;139576;-84
2024/01/16 13:42:05;;;;;;;17.00;7.40;;;;;;;-1.42;100.00;99652.25;214822;1290;140894;-84
2024/01/16 13:47:06;;;;;;;17.50;6.80;;;;;;;-1.45;100.00;99658.13;215351;1286;140084;-84
2024/01/16 13:52:06;;;;;;;11.70;5.00;;;;;;;-1.46;100.00;99655.02;215058;1290;141485;-84
2024/01/16 13:57:07;;;;;;;11.90;5.30;;;;;;;-1.50;100.00;99654.54;215392;1285;139353;-84
2024/01/16 14:02:08;;;;;;;9.80;5.00;;;;;;;-1.50;100.00;99657.78;214945;1286;139929;-84
2024/01/16 14:07:08;;;;;;;19.90;6.80;;;;;;;-1.51;100.00;99659.92;215609;1290;139083;-84
2024/01/16 14:12:09;;;;;;;16.50;9.00;;;;;;;-1.54;100.00;99661.42;214815;1288;140604;-83
2024/01/16 14:17:09;;;;;;;21.20;7.10;;;;;;;-1.58;100.00;99670.88;215280;1288;139243;-83
2024/01/16 14:22:10;;;;;;;16.10;7.30;;;;;;;-1.62;100.00;99674.92;214810;1290;141558;-84
2024/01/16 14:27:10;;;;;;;15.70;7.00;;;;;;;-1.62;100.00;99674.77;215116;1286;139395;-83
2024/01/16 14:32:11;;;;;;;19.10;6.70;;;;;;;-1.61;100.00;99682.08;214853;1288;140569;-84
2024/01/16 14:37:13;;;;;;;19.50;9.00;;;;;;;-1.62;100.00;99678.70;215520;1286;139549;-82
2024/01/16 14:42:13;;;;;;;22.20;9.50;;;;;;;-1.63;100.00;99674.80;214740;1286;140800;-84
2024/01/16 14:47:14;;;;;;;22.40;11.00;;;;;;;-1.62;100.00;99678.39;215453;1285;139087;-83
2024/01/16 14:52:14;;;;;;;23.60;9.80;;;;;;;-1.63;100.00;99678.67;215003;1290;140749;-84
2024/01/16 14:57:15;;;;;;;26.20;10.00;;;;;;;-1.65;100.00;99688.35;215360;1286;138901;-84
2024/01/16 15:02:16;;;;;;;25.90;11.10;;;;;;;-1.67;100.00;99698.05;214794;1288;140013;-84
2024/01/16 15:07:16;;;;;;;19.30;8.80;;;;;;;-1.67;100.00;99697.80;215384;1290;139359;-84
2024/01/16 15:12:18;;;;;;;28.70;11.20;;;;;;;-1.68;100.00;99696.37;214698;1288;139987;-84
2024/01/16 15:17:18;;;;;;;32.40;13.20;;;;;;;-1.69;100.00;99698.98;215251;1290;139342;-85
2024/01/16 15:22:19;;;;;;;23.50;11.80;;;;;;;-1.68;100.00;99696.69;215091;1286;140549;-85
2024/01/16 15:27:20;;;;;;;31.90;15.70;;;;;;;-1.68;100.00;99694.52;215349;1285;139062;-84
2024/01/16 15:32:20;;;;;;;31.30;15.20;;;;;;;-1.69;100.00;99686.23;214871;1289;140374;-85
2024/01/16 15:37:21;;;;;;;41.80;15.80;;;;;;;-1.69;100.00;99683.02;215433;1286;139779;-84
2024/01/16 15:42:24;;;;;;;33.90;14.60;;;;;;;-1.68;100.00;99680.44;215137;1290;140254;-85
2024/01/16 15:47:25;;;;;;;37.40;14.70;;;;;;;-1.69;100.00;99683.48;215369;1290;139908;-85
2024/01/16 15:52:26;;;;;;;37.60;14.50;;;;;;;-1.68;100.00;99683.89;215063;1288;140604;-84
2024/01/16 15:57:28;;;;;;;38.20;14.60;;;;;;;-1.68;100.00;99685.04;215343;1287;139358;-85
2024/01/16 16:02:28;;;;;;;37.60;14.40;;;;;;;-1.67;100.00;99680.09;215080;1288;140357;-85
2024/01/16 16:07:29;;;;;;;33.80;15.20;;;;;;;-1.66;100.00;99681.73;215746;1289;139251;-85
2024/01/16 16:12:29;;;;;;;28.80;13.30;;;;;;;-1.67;100.00;99681.98;215312;1288;140229;-84
2024/01/16 16:17:30;;;;;;;45.30;19.30;;;;;;;-1.67;100.00;99687.05;215480;1290;139209;-84
2024/01/16 16:22:30;;;;;;;38.10;17.60;;;;;;;-1.66;100.00;99683.30;215811;1286;139870;-86
2024/01/16 16:27:31;;;;;;;28.50;14.00;;;;;;;-1.65;100.00;99684.13;216109;1290;140095;-84
2024/01/16 16:32:31;;;;;;;28.00;13.60;;;;;;;-1.64;100.00;99692.09;215130;1285;140155;-84
2024/01/16 16:37:33;;;;;;;26.50;12.90;;;;;;;-1.65;100.00;99681.40;215690;1285;139864;-85
2024/01/16 16:42:34;;;;;;;35.10;14.30;;;;;;;-1.63;100.00;99672.64;215011;1288;140567;-86
2024/01/16 16:47:35;;;;;;;30.20;14.70;;;;;;;-1.64;100.00;99670.35;215404;1289;139675;-85
2024/01/16 16:52:35;;;;;;;32.90;15.40;;;;;;;-1.67;100.00;99668.83;215213;1286;140450;-86
2024/01/16 16:57:36;;;;;;;32.90;15.70;;;;;;;-1.71;100.00;99666.19;215644;1290;95877;-86
2024/01/16 17:02:37;;;;;;;35.80;17.90;;;;;;;-1.76;100.00;99656.63;215021;1286;140286;-85
2024/01/16 17:07:38;;;;;;;38.20;18.60;;;;;;;-1.79;100.00;99652.78;215605;1286;139579;-84
2024/01/16 17:12:38;;;;;;;31.90;15.80;;;;;;;-1.76;100.00;99652.63;215201;1288;140815;-86
2024/01/16 17:17:45;;;;;;;34.20;16.30;;;;;;;-1.73;100.00;99649.90;215652;1286;139859;-85
2024/01/16 17:22:46;;;;;;;34.50;16.00;;;;;;;-1.76;100.00;99648.69;215282;1290;140607;-85
2024/01/16 17:27:49;;;;;;;34.20;15.30;;;;;;;-1.83;100.00;99634.95;215831;1291;96580;-85
2024/01/16 17:32:50;;;;;;;30.70;14.00;;;;;;;-1.89;100.00;99636.59;215169;1291;141197;-85
2024/01/16 17:37:50;;;;;;;28.20;12.90;;;;;;;-1.90;100.00;99634.49;215635;1287;141378;-85
2024/01/16 17:42:51;;;;;;;27.60;13.00;;;;;;;-1.89;100.00;99632.96;215009;1290;140914;-84
2024/01/16 17:47:51;;;;;;;29.30;15.10;;;;;;;-1.89;100.00;99639.21;215761;1290;139437;-85
2024/01/16 17:52:52;;;;;;;32.10;13.60;;;;;;;-1.80;100.00;99639.32;215163;1290;140514;-85
2024/01/16 17:57:53;;;;;;;29.80;14.70;;;;;;;-1.76;100.00;99629.88;215414;1292;96594;-86
2024/01/16 18:02:54;;;;;;;30.60;13.20;;;;;;;-1.76;100.00;99639.27;215347;1285;140266;-85
2024/01/16 18:07:54;;;;;;;35.20;15.20;;;;;;;-1.72;100.00;99644.02;215159;1290;140085;-84
2024/01/16 18:25:56;;;;;;;37.50;18.10;;;;;;;-1.61;100.00;99629.52;212702;1299;364446;-83
2024/01/16 18:32:06;;;;;;;;;;;;;;;;;;;;;
2024/01/16 18:38:20;;;;;;;;;;;;;;;;;;;;;
2024/01/16 18:43:30;;;;;;;;;;;;;;;;;;;;;
2024/01/16 19:13:37;;;;;;;;;;;;;;;;;;;;;
2024/01/16 19:26:31;;;;;;;;;;;;;;;;;;;;;
2024/01/16 19:32:31;;;;;;;;;;;;;;;;;;;;;
2024/01/16 19:43:51;;;;;;;45.50;19.10;;;;;;;-1.17;100.00;99656.80;212616;1311;140483;-86
2024/01/16 19:49:31;;;;;;;42.50;19.00;;;;;;;-1.14;100.00;99657.56;211334;1320;139494;-85
2024/01/16 19:55:25;;;;;;;;;;;;;;;;;;;;;
2024/01/16 20:07:57;;;;;;;;;;;;;;;;;;;;;
2024/01/16 20:19:07;;;;;;;38.00;15.00;;;;;;;-0.89;100.00;99660.83;209060;1319;97879;-86
2024/01/16 20:24:54;;;;;;;;;;;;;;;;;;;;;
2024/01/16 20:30:40;;;;;;;39.60;14.50;;;;;;;-0.87;100.00;99663.92;211424;1308;139165;-85
2024/01/16 20:42:40;;;;;;;;;;;;;;;;;;;;;
2024/01/16 21:00:59;;;;;;;41.90;18.10;;;;;;;-0.88;100.00;99685.47;214211;1290;141555;-83
2024/01/16 21:18:31;;;;;;;;;;;;;;;;;;;;;
2024/01/16 21:24:28;;;;;;;;;;;;;;;;;;;;;
2024/01/16 21:30:04;;;;;;;31.90;13.10;;;;;;;-0.82;100.00;99670.87;213164;1301;97996;-87
2024/01/16 21:42:20;;;;;;;29.40;11.20;;;;;;;-0.81;100.00;99675.29;210567;1305;140877;-85
2024/01/16 21:59:54;;;;;;;;;;;;;;;;;;;;;
2024/01/16 22:24:39;;;;;;;;;;;;;;;;;;;;;
2024/01/16 22:30:31;;;;;;;32.90;14.50;;;;;;;-0.75;100.00;99685.20;210402;1313;110897;-86
